Time;durP1;ratioP1;P1;durP2;ratioP2;P2;SDS_P1;SDS_P2;PMS_P1;PMS_P2;Temp;Humidity;BMP_temperature;BMP_pressure;BME280_temperature;BME280_humidity;BME280_pressure;Samples;Min_cycle;Max_cycle;Signal;HPM_P1;HPM_P2
2021/04/07 00:00:16;;;;;;;4.18;1.60;;;;;;;;;;5110487;28;20058;-75
2021/04/07 00:02:42;;;;;;;6.18;2.85;;;;;;;;;;5110107;28;20369;-73
2021/04/07 00:05:20;;;;;;;4.30;2.03;;;;;;;;;;5110071;28;20414;-73
2021/04/07 00:07:55;;;;;;;4.85;2.20;;;;;;;;;;5069327;28;20441;-75
2021/04/07 00:10:22;;;;;;;8.82;1.80;;;;;;;;;;5069700;28;20069;-74
2021/04/07 00:12:59;;;;;;;5.40;2.33;;;;;;;;;;5110269;27;20437;-73
2021/04/07 00:18:58;;;;;;;4.80;2.20;;;;;;;;;;5069776;28;20384;-72
2021/04/07 00:21:25;;;;;;;6.10;3.30;;;;;;;;;;5069884;28;20033;-73
2021/04/07 00:26:12;;;;;;;5.80;2.50;;;;;;;;;;5069782;28;20430;-74
2021/04/07 00:29:38;;;;;;;7.32;2.33;;;;;;;;;;5109980;27;20434;-73
2021/04/07 00:32:04;;;;;;;3.13;1.90;;;;;;;;;;5110318;28;20034;-74
2021/04/07 00:34:32;;;;;;;5.68;2.83;;;;;;;;;;5110288;28;20100;-74
2021/04/07 00:38:43;;;;;;;5.40;2.13;;;;;;;;;;5110371;27;20442;-73
2021/04/07 00:41:47;;;;;;;5.47;2.35;;;;;;;;;;5111055;27;20715;-73
2021/04/07 00:44:13;;;;;;;5.05;2.22;;;;;;;;;;5109901;28;20065;-74
2021/04/07 00:48:51;;;;;;;5.82;2.83;;;;;;;;;;5069788;28;20441;-73
2021/04/07 00:52:40;;;;;;;8.23;3.08;;;;;;;;;;5110292;27;20384;-75
2021/04/07 00:57:46;;;;;;;9.80;2.97;;;;;;;;;;5069335;28;20438;-73
2021/04/07 01:00:13;;;;;;;6.35;2.70;;;;;;;;;;5069810;28;20028;-73
2021/04/07 01:02:40;;;;;;;6.25;3.20;;;;;;;;;;5069808;28;20029;-75
2021/04/07 01:05:07;;;;;;;6.90;3.15;;;;;;;;;;5069308;28;20074;-75
2021/04/07 01:07:34;;;;;;;7.47;3.28;;;;;;;;;;5069584;28;20509;-75
2021/04/07 01:11:24;;;;;;;7.40;3.08;;;;;;;;;;5109902;27;20792;-75
2021/04/07 01:13:50;;;;;;;10.65;3.60;;;;;;;;;;5110299;28;20367;-75
2021/04/07 01:17:51;;;;;;;9.52;4.55;;;;;;;;;;5110174;27;20393;-74
2021/04/07 01:20:19;;;;;;;8.95;3.80;;;;;;;;;;5110504;28;20111;-75
2021/04/07 01:22:53;;;;;;;9.05;3.65;;;;;;;;;;5126264;28;20024;-75
2021/04/07 01:25:20;;;;;;;13.32;3.63;;;;;;;;;;5109939;28;20495;-75
2021/04/07 01:27:46;;;;;;;10.38;3.58;;;;;;;;;;5110131;28;20028;-75
2021/04/07 01:30:14;;;;;;;5.65;2.63;;;;;;;;;;5125826;28;20028;-75
2021/04/07 01:35:55;;;;;;;9.90;3.30;;;;;;;;;;5110398;27;20389;-73
2021/04/07 01:38:47;;;;;;;6.00;2.95;;;;;;;;;;5110201;27;20372;-75
2021/04/07 01:41:14;;;;;;;4.38;2.65;;;;;;;;;;5108782;28;20019;-75
2021/04/07 01:43:40;;;;;;;5.57;2.70;;;;;;;;;;5110414;28;20085;-75
2021/04/07 01:46:06;;;;;;;5.93;3.30;;;;;;;;;;5109798;28;20376;-75
2021/04/07 01:48:33;;;;;;;8.60;3.35;;;;;;;;;;5108787;28;20020;-75
2021/04/07 01:50:59;;;;;;;6.38;2.50;;;;;;;;;;5108769;28;20028;-75
2021/04/07 01:53:26;;;;;;;6.05;2.40;;;;;;;;;;5108353;28;20024;-75
2021/04/07 01:57:37;;;;;;;6.68;2.65;;;;;;;;;;5110156;27;20888;-72
2021/04/07 02:00:05;;;;;;;6.55;2.83;;;;;;;;;;5108892;28;20028;-75
2021/04/07 02:02:31;;;;;;;11.10;2.95;;;;;;;;;;5110398;28;20028;-75
2021/04/07 02:04:58;;;;;;;9.25;3.55;;;;;;;;;;5110234;28;20086;-75
2021/04/07 02:09:14;;;;;;;4.10;2.17;;;;;;;;;;5109883;27;20442;-74
2021/04/07 02:11:43;;;;;;;6.32;2.92;;;;;;;;;;5108947;28;20032;-73
2021/04/07 02:14:09;;;;;;;7.13;3.03;;;;;;;;;;5109809;28;20027;-73
2021/04/07 02:20:49;;;;;;;10.15;5.22;;;;;;;;;;5110488;27;20384;-72
2021/04/07 02:23:16;;;;;;;10.15;6.10;;;;;;;;;;5109915;28;20449;-73
2021/04/07 02:25:42;;;;;;;11.30;5.95;;;;;;;;;;5110231;28;20488;-75
2021/04/07 02:28:08;;;;;;;13.50;6.78;;;;;;;;;;5110186;28;20034;-73
2021/04/07 02:30:34;;;;;;;10.73;6.13;;;;;;;;;;5108443;28;20024;-74
2021/04/07 02:33:01;;;;;;;12.23;6.10;;;;;;;;;;5110068;28;20094;-75
2021/04/07 02:35:27;;;;;;;13.13;6.30;;;;;;;;;;5109683;28;20020;-74
2021/04/07 02:37:54;;;;;;;12.23;6.95;;;;;;;;;;5110192;28;20020;-73
2021/04/07 02:40:20;;;;;;;13.23;6.28;;;;;;;;;;5109953;28;20032;-73
2021/04/07 02:42:46;;;;;;;9.50;6.03;;;;;;;;;;5109512;28;20023;-72
2021/04/07 02:45:13;;;;;;;10.90;5.03;;;;;;;;;;5108480;28;20088;-73
2021/04/07 02:47:39;;;;;;;7.15;4.43;;;;;;;;;;5109833;28;20065;-73
2021/04/07 02:50:06;;;;;;;9.13;4.95;;;;;;;;;;5109357;28;20034;-74
2021/04/07 02:52:32;;;;;;;9.52;4.53;;;;;;;;;;5109711;28;20480;-75
2021/04/07 02:54:58;;;;;;;10.57;4.35;;;;;;;;;;5109698;28;20032;-73
2021/04/07 02:57:24;;;;;;;10.77;4.90;;;;;;;;;;5109290;28;20091;-73
2021/04/07 02:59:50;;;;;;;6.63;4.00;;;;;;;;;;5109759;28;20039;-75
2021/04/07 03:02:16;;;;;;;6.25;3.60;;;;;;;;;;5109824;28;20024;-73
2021/04/07 03:04:43;;;;;;;8.02;3.67;;;;;;;;;;5107817;28;20035;-75
2021/04/07 03:07:09;;;;;;;8.18;3.53;;;;;;;;;;5109489;28;20372;-75
2021/04/07 03:09:35;;;;;;;7.22;3.42;;;;;;;;;;5109446;28;20069;-74
2021/04/07 03:12:01;;;;;;;6.20;3.10;;;;;;;;;;5107650;28;20027;-74
2021/04/07 03:14:27;;;;;;;6.32;3.00;;;;;;;;;;5109351;28;20075;-73
2021/04/07 03:16:53;;;;;;;5.55;2.90;;;;;;;;;;5109195;28;20024;-73
2021/04/07 03:19:20;;;;;;;5.65;2.97;;;;;;;;;;5108803;28;20043;-73
2021/04/07 03:21:46;;;;;;;6.28;2.80;;;;;;;;;;5109201;28;20483;-73
2021/04/07 03:24:12;;;;;;;5.38;2.83;;;;;;;;;;5107786;28;20020;-73
2021/04/07 03:26:38;;;;;;;5.70;3.00;;;;;;;;;;5108712;28;20031;-73
2021/04/07 03:29:04;;;;;;;5.25;2.80;;;;;;;;;;5107751;28;20124;-73
2021/04/07 03:31:31;;;;;;;5.75;2.88;;;;;;;;;;5098623;28;20081;-74
2021/04/07 03:33:57;;;;;;;5.10;2.42;;;;;;;;;;5095350;28;20031;-73
2021/04/07 03:36:23;;;;;;;5.28;2.60;;;;;;;;;;5095317;28;20039;-73
2021/04/07 03:38:49;;;;;;;6.40;2.75;;;;;;;;;;5093683;28;20438;-73
2021/04/07 03:41:15;;;;;;;3.22;1.95;;;;;;;;;;5095444;28;20028;-73
2021/04/07 03:43:41;;;;;;;5.32;2.70;;;;;;;;;;5095175;28;20027;-73
2021/04/07 03:46:08;;;;;;;5.10;2.60;;;;;;;;;;5094776;28;20089;-74
2021/04/07 03:48:34;;;;;;;3.50;1.90;;;;;;;;;;5095115;28;20077;-75
2021/04/07 03:51:00;;;;;;;3.65;2.00;;;;;;;;;;5094984;28;20028;-74
2021/04/07 03:53:27;;;;;;;4.38;2.08;;;;;;;;;;5093345;28;20118;-75
2021/04/07 03:55:54;;;;;;;4.18;1.98;;;;;;;;;;5095264;28;20050;-74
2021/04/07 03:58:21;;;;;;;4.40;2.30;;;;;;;;;;5093821;28;20024;-74
2021/04/07 04:00:47;;;;;;;6.28;2.83;;;;;;;;;;5094695;28;20562;-74
2021/04/07 04:03:14;;;;;;;4.32;2.35;;;;;;;;;;5093630;28;20028;-74
2021/04/07 04:05:40;;;;;;;4.00;1.98;;;;;;;;;;5095144;28;20035;-75
2021/04/07 04:08:07;;;;;;;4.18;1.98;;;;;;;;;;5094531;28;20229;-75
2021/04/07 04:10:33;;;;;;;2.67;1.65;;;;;;;;;;5094605;28;20020;-75
2021/04/07 04:13:00;;;;;;;2.55;1.52;;;;;;;;;;5094585;28;20027;-74
2021/04/07 04:15:26;;;;;;;1.80;1.30;;;;;;;;;;5092958;28;20024;-75
2021/04/07 04:17:53;;;;;;;1.42;1.13;;;;;;;;;;5094606;28;20028;-74
2021/04/07 04:20:19;;;;;;;2.63;1.60;;;;;;;;;;5094440;28;20071;-74
2021/04/07 04:22:46;;;;;;;3.88;1.83;;;;;;;;;;5094156;28;20023;-73
2021/04/07 04:25:16;;;;;;;2.13;1.20;;;;;;;;;;5094289;28;20032;-75
2021/04/07 04:27:43;;;;;;;7.15;3.53;;;;;;;;;;5094296;28;20027;-74
2021/04/07 04:30:11;;;;;;;5.65;2.35;;;;;;;;;;5093861;28;20481;-76
2021/04/07 04:32:37;;;;;;;6.03;3.08;;;;;;;;;;5094313;28;20035;-74
2021/04/07 04:35:04;;;;;;;5.93;3.33;;;;;;;;;;5092533;28;20484;-74
2021/04/07 04:37:30;;;;;;;8.52;3.63;;;;;;;;;;5094296;28;20028;-75
2021/04/07 04:39:57;;;;;;;5.32;2.42;;;;;;;;;;5094233;28;20032;-74
2021/04/07 04:42:23;;;;;;;3.88;2.05;;;;;;;;;;5092785;28;20024;-75
2021/04/07 04:44:49;;;;;;;5.13;2.20;;;;;;;;;;5094087;28;20430;-75
2021/04/07 04:47:15;;;;;;;4.18;1.90;;;;;;;;;;5093976;28;20076;-75
2021/04/07 04:49:41;;;;;;;3.10;1.83;;;;;;;;;;5093509;28;20372;-75
2021/04/07 04:52:08;;;;;;;5.05;2.08;;;;;;;;;;5092478;28;20038;-76
2021/04/07 04:54:34;;;;;;;4.63;1.90;;;;;;;;;;5092484;28;20056;-75
2021/04/07 04:57:00;;;;;;;7.97;2.97;;;;;;;;;;5093377;28;20028;-75
2021/04/07 04:59:26;;;;;;;5.45;2.15;;;;;;;;;;5093811;28;20507;-74
2021/04/07 05:01:52;;;;;;;2.97;1.58;;;;;;;;;;5093587;28;20054;-76
2021/04/07 05:04:19;;;;;;;7.10;3.55;;;;;;;;;;5093307;28;20096;-76
2021/04/07 05:06:45;;;;;;;5.20;2.72;;;;;;;;;;5093512;28;20020;-76
2021/04/07 05:09:11;;;;;;;9.32;4.13;;;;;;;;;;5093543;28;20024;-76
2021/04/07 05:11:37;;;;;;;4.35;2.20;;;;;;;;;;5093081;28;20069;-75
2021/04/07 05:14:04;;;;;;;4.57;1.83;;;;;;;;;;5092128;28;20051;-75
2021/04/07 05:16:31;;;;;;;5.18;2.20;;;;;;;;;;5093403;28;20492;-75
2021/04/07 05:18:57;;;;;;;5.35;2.53;;;;;;;;;;5092876;28;20458;-74
2021/04/07 05:21:23;;;;;;;4.88;2.70;;;;;;;;;;5093493;28;20024;-75
2021/04/07 05:23:49;;;;;;;3.20;2.03;;;;;;;;;;5092378;28;20020;-75
2021/04/07 05:26:16;;;;;;;4.78;2.28;;;;;;;;;;5093793;28;20028;-76
2021/04/07 05:28:42;;;;;;;4.80;2.45;;;;;;;;;;5095032;28;20081;-75
2021/04/07 05:31:11;;;;;;;4.90;2.50;;;;;;;;;;5090237;28;20476;-75
2021/04/07 05:33:38;;;;;;;4.57;2.45;;;;;;;;;;5091850;28;20023;-75
2021/04/07 05:36:06;;;;;;;5.03;2.10;;;;;;;;;;5089710;28;20115;-75
2021/04/07 05:38:33;;;;;;;4.20;2.40;;;;;;;;;;5090780;28;20087;-74
2021/04/07 05:41:00;;;;;;;6.15;3.08;;;;;;;;;;5091077;28;20031;-75
2021/04/07 05:43:27;;;;;;;6.68;3.35;;;;;;;;;;5091010;28;20012;-74
2021/04/07 05:45:53;;;;;;;5.07;2.72;;;;;;;;;;5090549;28;20020;-76
2021/04/07 05:48:19;;;;;;;9.15;4.15;;;;;;;;;;5092851;28;20032;-71
2021/04/07 05:50:46;;;;;;;10.27;4.80;;;;;;;;;;5092815;28;20027;-70
2021/04/07 05:53:13;;;;;;;6.97;3.50;;;;;;;;;;5092368;28;20016;-79
2021/04/07 05:55:43;;;;;;;4.00;2.50;;;;;;;;;;5091768;28;20047;-80
2021/04/07 05:58:10;;;;;;;4.53;2.50;;;;;;;;;;5091917;28;20081;-80
2021/04/07 06:00:39;;;;;;;8.45;4.25;;;;;;;;;;5088516;28;20040;-80
2021/04/07 06:03:05;;;;;;;6.78;3.85;;;;;;;;;;5093480;28;20024;-78
2021/04/07 06:05:44;;;;;;;7.80;3.60;;;;;;;;;;5110811;28;20024;-78
2021/04/07 06:08:10;;;;;;;7.95;3.17;;;;;;;;;;5111209;28;20031;-78
2021/04/07 06:10:38;;;;;;;7.55;3.83;;;;;;;;;;5111256;28;20065;-73
2021/04/07 06:13:04;;;;;;;7.40;3.55;;;;;;;;;;5109340;28;20106;-80
2021/04/07 06:15:31;;;;;;;8.48;4.88;;;;;;;;;;5110856;28;20018;-75
2021/04/07 06:18:01;;;;;;;8.18;4.10;;;;;;;;;;5111494;28;20028;-77
2021/04/07 06:20:33;;;;;;;10.35;4.78;;;;;;;;;;5112650;28;20052;-77
2021/04/07 06:22:59;;;;;;;10.25;4.82;;;;;;;;;;5112596;28;20012;-79
2021/04/07 06:25:26;;;;;;;9.38;5.03;;;;;;;;;;5095429;28;20021;-80
2021/04/07 06:27:56;;;;;;;17.58;9.50;;;;;;;;;;5090434;28;20069;-70
2021/04/07 06:30:44;;;;;;;10.50;5.22;;;;;;;;;;5091902;28;20024;-69
2021/04/07 06:33:10;;;;;;;9.23;4.43;;;;;;;;;;5098177;28;20434;-69
2021/04/07 06:35:36;;;;;;;9.27;5.65;;;;;;;;;;5111284;28;20476;-69
2021/04/07 06:38:03;;;;;;;11.85;5.50;;;;;;;;;;5112503;28;20031;-70
2021/04/07 06:40:30;;;;;;;11.93;5.78;;;;;;;;;;5112436;28;20039;-69
2021/04/07 06:42:57;;;;;;;9.55;5.07;;;;;;;;;;5096957;28;20529;-68
2021/04/07 06:45:24;;;;;;;11.60;5.55;;;;;;;;;;5090937;28;20073;-67
2021/04/07 06:47:50;;;;;;;8.85;4.60;;;;;;;;;;5091553;28;20722;-70
2021/04/07 06:50:17;;;;;;;12.52;6.55;;;;;;;;;;5091644;28;20024;-69
2021/04/07 06:52:44;;;;;;;14.18;7.55;;;;;;;;;;5091913;28;20535;-68
2021/04/07 06:55:11;;;;;;;12.98;7.43;;;;;;;;;;5087080;28;20577;-69
2021/04/07 06:57:37;;;;;;;11.30;6.22;;;;;;;;;;5091714;28;20059;-71
2021/04/07 07:00:07;;;;;;;9.57;5.65;;;;;;;;;;5092212;28;20036;-71
2021/04/07 07:02:37;;;;;;;11.73;6.00;;;;;;;;;;5090676;28;20028;-75
2021/04/07 07:05:04;;;;;;;10.55;5.93;;;;;;;;;;5092064;28;20024;-77
2021/04/07 07:07:30;;;;;;;13.23;7.45;;;;;;;;;;5095519;28;20118;-75
2021/04/07 07:09:57;;;;;;;9.18;5.22;;;;;;;;;;5095522;28;20021;-74
2021/04/07 07:12:23;;;;;;;12.68;6.70;;;;;;;;;;5095772;28;20020;-70
2021/04/07 07:14:50;;;;;;;11.52;6.07;;;;;;;;;;5094404;28;20028;-71
2021/04/07 07:17:29;;;;;;;7.72;3.72;;;;;;;;;;5095265;28;20020;-71
2021/04/07 07:19:56;;;;;;;10.73;5.50;;;;;;;;;;5095472;28;20072;-72
2021/04/07 07:22:23;;;;;;;10.73;4.93;;;;;;;;;;5095694;28;20072;-70
2021/04/07 07:24:54;;;;;;;12.20;5.80;;;;;;;;;;5092796;28;20047;-71
2021/04/07 07:27:34;;;;;;;12.30;7.50;;;;;;;;;;5095436;28;20028;-68
2021/04/07 07:30:00;;;;;;;10.65;5.88;;;;;;;;;;5094072;28;20454;-68
2021/04/07 07:32:33;;;;;;;12.07;6.43;;;;;;;;;;5094938;28;20377;-69
2021/04/07 07:35:10;;;;;;;13.80;6.15;;;;;;;;;;5093853;28;20031;-68
2021/04/07 07:37:36;;;;;;;14.80;8.68;;;;;;;;;;5095282;28;20051;-69
2021/04/07 07:40:04;;;;;;;13.80;6.82;;;;;;;;;;5086505;28;20401;-67
2021/04/07 07:42:30;;;;;;;12.02;6.50;;;;;;;;;;5074952;28;20031;-69
2021/04/07 07:44:56;;;;;;;8.35;5.43;;;;;;;;;;5074827;28;20032;-69
2021/04/07 07:47:39;;;;;;;8.40;4.82;;;;;;;;;;5074647;28;20492;-70
2021/04/07 07:50:06;;;;;;;8.77;4.90;;;;;;;;;;5072183;28;20032;-70
2021/04/07 07:52:37;;;;;;;24.27;7.25;;;;;;;;;;5072600;28;20091;-70
2021/04/07 07:55:13;;;;;;;10.88;5.82;;;;;;;;;;5074683;28;20039;-70
2021/04/07 07:57:40;;;;;;;19.48;10.20;;;;;;;;;;5074575;28;20035;-70
2021/04/07 08:00:10;;;;;;;14.32;8.57;;;;;;;;;;5074178;28;20033;-70
2021/04/07 08:02:38;;;;;;;16.83;10.57;;;;;;;;;;5074847;28;20423;-70
2021/04/07 08:05:17;;;;;;;14.95;7.68;;;;;;;;;;5074422;28;20082;-68
2021/04/07 08:07:43;;;;;;;8.30;4.82;;;;;;;;;;5074056;28;20549;-68
2021/04/07 08:10:10;;;;;;;10.20;5.97;;;;;;;;;;5087200;28;20393;-68
2021/04/07 08:12:37;;;;;;;12.05;7.13;;;;;;;;;;5092653;28;20062;-67
2021/04/07 08:15:04;;;;;;;12.75;7.85;;;;;;;;;;5094013;28;20074;-70
2021/04/07 08:17:30;;;;;;;10.18;6.15;;;;;;;;;;5075568;28;20040;-68
2021/04/07 08:19:57;;;;;;;7.57;4.72;;;;;;;;;;5072224;28;20048;-70
2021/04/07 08:22:25;;;;;;;9.82;5.65;;;;;;;;;;5074106;28;20016;-69
2021/04/07 08:24:51;;;;;;;8.50;5.07;;;;;;;;;;5092507;28;20028;-70
2021/04/07 08:27:20;;;;;;;9.35;4.90;;;;;;;;;;5083333;28;20031;-71
2021/04/07 08:29:47;;;;;;;10.15;5.68;;;;;;;;;;5079050;28;20024;-70
2021/04/07 08:32:14;;;;;;;10.98;5.70;;;;;;;;;;5090412;28;20089;-71
2021/04/07 08:34:40;;;;;;;13.15;7.10;;;;;;;;;;5091674;28;20044;-72
2021/04/07 08:37:06;;;;;;;9.50;5.95;;;;;;;;;;5088194;28;20025;-72
2021/04/07 08:39:41;;;;;;;8.85;5.47;;;;;;;;;;5073783;28;20032;-72
2021/04/07 08:42:09;;;;;;;10.95;5.97;;;;;;;;;;5073641;28;20074;-71
2021/04/07 08:44:35;;;;;;;12.73;7.00;;;;;;;;;;5073903;28;20503;-71
2021/04/07 08:47:03;;;;;;;13.10;7.65;;;;;;;;;;5088212;28;20016;-71
2021/04/07 08:49:36;;;;;;;17.83;7.90;;;;;;;;;;5093366;28;20020;-69
2021/04/07 08:52:23;;;;;;;15.27;5.97;;;;;;;;;;5091170;28;20137;-68
2021/04/07 08:54:50;;;;;;;13.43;6.00;;;;;;;;;;5092043;28;20017;-75
2021/04/07 08:57:32;;;;;;;10.95;5.80;;;;;;;;;;5091557;28;20028;-71
2021/04/07 08:59:59;;;;;;;13.05;6.85;;;;;;;;;;5091710;28;20035;-72
2021/04/07 09:02:26;;;;;;;13.32;6.95;;;;;;;;;;5090343;28;20024;-72
2021/04/07 09:05:05;;;;;;;13.35;7.95;;;;;;;;;;5091661;28;20020;-71
2021/04/07 09:07:41;;;;;;;11.93;5.85;;;;;;;;;;5091706;28;20040;-73
2021/04/07 09:10:14;;;;;;;15.88;7.72;;;;;;;;;;5091608;28;20020;-72
2021/04/07 09:12:41;;;;;;;17.33;8.45;;;;;;;;;;5093009;28;20024;-73
2021/04/07 09:15:11;;;;;;;17.88;7.90;;;;;;;;;;5092969;28;20027;-76
2021/04/07 09:17:44;;;;;;;17.67;9.00;;;;;;;;;;5093136;28;20028;-74
2021/04/07 09:20:11;;;;;;;11.50;5.93;;;;;;;;;;5091929;28;20524;-74
2021/04/07 09:22:47;;;;;;;9.75;5.57;;;;;;;;;;5092817;28;20027;-75
2021/04/07 09:25:18;;;;;;;11.98;5.47;;;;;;;;;;5091014;28;20433;-74
2021/04/07 09:27:45;;;;;;;11.98;5.65;;;;;;;;;;5091418;28;20077;-71
2021/04/07 09:30:11;;;;;;;9.45;5.38;;;;;;;;;;5091001;28;20076;-70
2021/04/07 09:32:40;;;;;;;11.18;5.93;;;;;;;;;;5091122;28;20024;-72
2021/04/07 09:35:10;;;;;;;16.85;8.93;;;;;;;;;;5091097;28;20020;-71
2021/04/07 09:37:39;;;;;;;13.82;8.25;;;;;;;;;;5086829;28;20020;-70
2021/04/07 09:40:15;;;;;;;16.02;7.88;;;;;;;;;;5089407;28;20039;-69
2021/04/07 09:42:41;;;;;;;17.13;9.27;;;;;;;;;;5092728;28;20027;-71
2021/04/07 09:45:08;;;;;;;23.77;10.65;;;;;;;;;;5092678;28;20464;-70
2021/04/07 09:47:34;;;;;;;15.82;8.80;;;;;;;;;;5090363;28;20020;-71
2021/04/07 09:50:10;;;;;;;9.95;5.85;;;;;;;;;;5091304;28;20416;-68
2021/04/07 09:52:43;;;;;;;11.07;6.63;;;;;;;;;;5092152;28;20051;-69
2021/04/07 09:55:19;;;;;;;11.70;5.75;;;;;;;;;;5092756;28;20020;-70
2021/04/07 09:57:55;;;;;;;14.43;7.63;;;;;;;;;;5092719;28;20085;-70
2021/04/07 10:00:22;;;;;;;18.80;10.93;;;;;;;;;;5092337;28;20386;-71
2021/04/07 10:02:48;;;;;;;17.38;9.13;;;;;;;;;;5090945;28;20016;-72
2021/04/07 10:05:25;;;;;;;13.25;6.50;;;;;;;;;;5091413;28;20138;-69
2021/04/07 10:07:51;;;;;;;13.27;7.43;;;;;;;;;;5090801;28;20024;-69
2021/04/07 10:10:17;;;;;;;12.65;6.40;;;;;;;;;;5090717;28;20075;-68
2021/04/07 10:12:44;;;;;;;8.98;5.40;;;;;;;;;;5090012;28;20016;-69
2021/04/07 10:15:11;;;;;;;20.67;11.45;;;;;;;;;;5089884;28;20058;-68
2021/04/07 10:17:37;;;;;;;17.00;9.90;;;;;;;;;;5090482;28;20028;-68
2021/04/07 10:20:11;;;;;;;18.48;10.23;;;;;;;;;;5090216;28;20068;-68
2021/04/07 10:22:38;;;;;;;17.77;11.32;;;;;;;;;;5088291;28;20082;-69
2021/04/07 10:25:19;;;;;;;20.05;11.32;;;;;;;;;;5084891;28;20040;-69
2021/04/07 10:27:46;;;;;;;13.88;7.30;;;;;;;;;;5086654;28;20016;-69
2021/04/07 10:30:14;;;;;;;11.25;6.63;;;;;;;;;;5092561;28;20129;-69
2021/04/07 10:32:47;;;;;;;20.10;12.40;;;;;;;;;;5091637;28;20094;-67
2021/04/07 10:35:26;;;;;;;17.20;8.90;;;;;;;;;;5077921;28;20074;-68
2021/04/07 10:37:52;;;;;;;17.80;9.20;;;;;;;;;;5091974;28;20491;-68
2021/04/07 10:40:22;;;;;;;15.70;9.13;;;;;;;;;;5093065;28;20032;-68
2021/04/07 10:42:48;;;;;;;16.63;8.52;;;;;;;;;;5090486;28;20035;-66
2021/04/07 10:45:17;;;;;;;19.50;10.25;;;;;;;;;;5094704;28;20035;-73
2021/04/07 10:47:43;;;;;;;19.45;10.32;;;;;;;;;;5081461;28;20035;-76
2021/04/07 10:50:09;;;;;;;20.75;11.00;;;;;;;;;;5096265;28;20020;-75
2021/04/07 10:52:37;;;;;;;22.65;13.00;;;;;;;;;;5096551;28;20507;-76
2021/04/07 10:55:08;;;;;;;17.48;9.75;;;;;;;;;;5095876;28;20069;-69
2021/04/07 10:57:35;;;;;;;14.32;8.27;;;;;;;;;;5085097;28;20025;-71
2021/04/07 11:00:04;;;;;;;16.92;9.98;;;;;;;;;;5074835;28;20060;-71
2021/04/07 11:02:39;;;;;;;13.05;7.75;;;;;;;;;;5077797;28;20073;-71
2021/04/07 11:05:15;;;;;;;12.77;7.85;;;;;;;;;;5110567;28;20034;-72
2021/04/07 11:07:42;;;;;;;14.02;8.38;;;;;;;;;;5081025;28;20103;-71
2021/04/07 11:10:12;;;;;;;13.80;8.43;;;;;;;;;;5073310;28;20025;-73
2021/04/07 11:12:39;;;;;;;7.82;4.82;;;;;;;;;;5079554;28;20024;-70
2021/04/07 11:15:10;;;;;;;15.27;7.03;;;;;;;;;;5095583;28;20020;-72
2021/04/07 11:17:37;;;;;;;10.70;5.93;;;;;;;;;;5095695;28;20168;-72
2021/04/07 11:20:04;;;;;;;14.93;7.05;;;;;;;;;;5094412;28;20126;-73
2021/04/07 11:22:30;;;;;;;11.70;6.13;;;;;;;;;;5096143;28;20024;-72
2021/04/07 11:24:57;;;;;;;16.73;7.75;;;;;;;;;;5096885;28;20032;-71
2021/04/07 11:27:23;;;;;;;9.18;5.50;;;;;;;;;;5114779;28;20034;-70
2021/04/07 11:29:49;;;;;;;11.38;6.43;;;;;;;;;;5115416;28;20035;-71
2021/04/07 11:32:17;;;;;;;13.20;6.38;;;;;;;;;;5115794;28;20027;-70
2021/04/07 11:34:54;;;;;;;18.27;7.63;;;;;;;;;;5115720;28;20023;-70
2021/04/07 11:37:40;;;;;;;8.80;5.47;;;;;;;;;;5115334;28;20023;-70
2021/04/07 11:40:09;;;;;;;10.27;5.38;;;;;;;;;;5115708;28;20027;-70
2021/04/07 11:45:05;;;;;;;8.73;5.40;;;;;;;;;;5115168;28;20069;-70
2021/04/07 11:47:31;;;;;;;6.72;3.58;;;;;;;;;;5115436;28;20410;-70
2021/04/07 11:49:58;;;;;;;15.38;7.93;;;;;;;;;;5115468;28;20034;-70
2021/04/07 11:52:28;;;;;;;11.98;6.80;;;;;;;;;;5114555;28;20026;-69
2021/04/07 11:54:54;;;;;;;14.70;7.43;;;;;;;;;;5115389;28;20028;-70
2021/04/07 11:57:21;;;;;;;17.98;8.65;;;;;;;;;;5115304;28;20073;-70
2021/04/07 11:59:47;;;;;;;10.75;5.82;;;;;;;;;;5114991;28;20588;-69
2021/04/07 12:02:13;;;;;;;11.32;5.57;;;;;;;;;;5114222;28;20380;-70
2021/04/07 12:04:39;;;;;;;18.70;10.48;;;;;;;;;;5115363;28;20024;-70
2021/04/07 12:07:05;;;;;;;18.35;10.18;;;;;;;;;;5114851;28;20049;-70
2021/04/07 12:09:31;;;;;;;9.98;5.63;;;;;;;;;;5115045;28;20160;-70
2021/04/07 12:11:58;;;;;;;16.48;8.98;;;;;;;;;;5113236;28;20026;-71
2021/04/07 12:14:24;;;;;;;18.17;11.30;;;;;;;;;;5115185;28;20015;-70
2021/04/07 12:16:50;;;;;;;14.60;7.65;;;;;;;;;;5113461;28;20388;-70
2021/04/07 12:20:24;;;;;;;14.30;6.30;;;;;;;;;;5109940;27;20438;-70
2021/04/07 12:22:52;;;;;;;10.55;5.63;;;;;;;;;;5109325;28;20024;-71
2021/04/07 12:26:07;;;;;;;8.63;4.72;;;;;;;;;;5109871;27;20434;-71
2021/04/07 12:28:34;;;;;;;9.07;5.13;;;;;;;;;;5108949;28;20024;-71
2021/04/07 12:32:58;;;;;;;10.65;5.68;;;;;;;;;;5069740;28;20388;-71
2021/04/07 12:35:24;;;;;;;13.25;6.65;;;;;;;;;;5069141;28;20060;-70
2021/04/07 12:37:50;;;;;;;13.48;7.72;;;;;;;;;;5069647;28;20017;-70
2021/04/07 12:40:16;;;;;;;13.73;7.20;;;;;;;;;;5069261;28;20016;-71
2021/04/07 12:42:43;;;;;;;8.60;4.78;;;;;;;;;;5069787;28;20067;-70
2021/04/07 12:45:09;;;;;;;7.00;4.07;;;;;;;;;;5068265;28;20029;-70
2021/04/07 12:48:30;;;;;;;9.77;6.00;;;;;;;;;;5109922;27;20453;-70
2021/04/07 12:50:57;;;;;;;9.45;5.13;;;;;;;;;;5110230;28;20081;-70
2021/04/07 12:53:23;;;;;;;12.68;6.38;;;;;;;;;;5110157;28;20026;-70
2021/04/07 12:55:50;;;;;;;12.05;7.25;;;;;;;;;;5109756;28;20028;-70
2021/04/07 12:59:05;;;;;;;10.93;5.47;;;;;;;;;;5069694;28;20899;-70
2021/04/07 13:01:31;;;;;;;10.45;5.95;;;;;;;;;;5069524;28;20056;-71
2021/04/07 13:03:57;;;;;;;16.08;8.15;;;;;;;;;;5069817;28;20027;-70
2021/04/07 13:06:23;;;;;;;9.27;6.10;;;;;;;;;;5069604;28;20024;-70
2021/04/07 13:08:50;;;;;;;8.57;5.32;;;;;;;;;;5069345;28;20067;-71
2021/04/07 13:11:16;;;;;;;9.32;4.88;;;;;;;;;;5069141;28;20659;-70
2021/04/07 13:13:42;;;;;;;8.48;4.50;;;;;;;;;;5069551;28;20020;-69
2021/04/07 13:16:08;;;;;;;9.00;5.82;;;;;;;;;;5068990;28;20021;-70
2021/04/07 13:18:36;;;;;;;16.52;6.90;;;;;;;;;;5068168;28;20489;-70
2021/04/07 13:21:08;;;;;;;7.70;4.35;;;;;;;;;;5067752;28;20025;-70
2021/04/07 13:23:34;;;;;;;9.38;5.45;;;;;;;;;;5066965;28;20052;-70
2021/04/07 13:26:01;;;;;;;8.98;5.10;;;;;;;;;;5067217;28;20025;-69
2021/04/07 13:28:27;;;;;;;10.10;5.63;;;;;;;;;;5067240;28;20505;-70
2021/04/07 13:30:55;;;;;;;8.90;5.60;;;;;;;;;;5066822;28;20098;-70
2021/04/07 13:35:59;;;;;;;10.55;5.85;;;;;;;;;;5067252;28;20021;-71
2021/04/07 13:41:31;;;;;;;13.93;8.38;;;;;;;;;;5068594;28;20021;-70
2021/04/07 13:43:58;;;;;;;13.68;7.90;;;;;;;;;;5068508;28;20020;-68
2021/04/07 13:46:24;;;;;;;16.10;9.07;;;;;;;;;;5068795;28;20033;-70
2021/04/07 13:48:52;;;;;;;11.52;8.00;;;;;;;;;;5068774;28;20470;-70
2021/04/07 13:51:19;;;;;;;12.55;7.93;;;;;;;;;;5068248;28;20032;-70
2021/04/07 13:53:47;;;;;;;13.38;8.43;;;;;;;;;;5068779;28;20032;-69
2021/04/07 13:56:19;;;;;;;11.55;7.65;;;;;;;;;;5068687;28;20012;-69
2021/04/07 13:58:45;;;;;;;10.77;7.50;;;;;;;;;;5067998;28;20091;-69
2021/04/07 14:01:12;;;;;;;11.75;7.15;;;;;;;;;;5068540;28;20045;-69
2021/04/07 14:03:39;;;;;;;11.88;7.40;;;;;;;;;;5068276;28;20021;-69
2021/04/07 14:06:07;;;;;;;13.50;8.77;;;;;;;;;;5066648;28;20101;-71
2021/04/07 14:08:34;;;;;;;13.65;9.45;;;;;;;;;;5065351;28;20031;-71
2021/04/07 14:11:01;;;;;;;12.15;8.32;;;;;;;;;;5055068;28;20017;-69
2021/04/07 14:14:56;;;;;;;12.18;8.32;;;;;;;;;;5069944;28;20383;-72
2021/04/07 14:17:22;;;;;;;21.15;13.23;;;;;;;;;;5069672;28;20541;-69
2021/04/07 14:19:48;;;;;;;17.17;9.20;;;;;;;;;;5069200;28;20029;-69
2021/04/07 14:22:14;;;;;;;20.30;11.32;;;;;;;;;;5069690;28;20025;-71
2021/04/07 14:24:40;;;;;;;19.48;10.77;;;;;;;;;;5069746;28;20025;-70
2021/04/07 14:27:07;;;;;;;16.80;9.73;;;;;;;;;;5067813;28;20032;-70
2021/04/07 14:29:34;;;;;;;16.67;10.55;;;;;;;;;;5068186;28;20025;-70
2021/04/07 14:32:03;;;;;;;11.75;7.82;;;;;;;;;;5069308;28;20480;-71
2021/04/07 14:34:29;;;;;;;13.70;8.82;;;;;;;;;;5067887;28;20037;-70
2021/04/07 14:36:55;;;;;;;15.40;9.82;;;;;;;;;;5069561;28;20100;-70
2021/04/07 14:39:22;;;;;;;17.25;10.32;;;;;;;;;;5068008;28;20021;-70
2021/04/07 14:41:48;;;;;;;15.18;9.82;;;;;;;;;;5068934;28;20025;-70
2021/04/07 14:44:14;;;;;;;17.35;10.00;;;;;;;;;;5069150;28;20380;-71
2021/04/07 14:46:40;;;;;;;16.42;9.57;;;;;;;;;;5067895;28;20477;-69
2021/04/07 14:49:06;;;;;;;19.45;11.82;;;;;;;;;;5068883;28;20500;-71
2021/04/07 14:51:39;;;;;;;17.73;10.45;;;;;;;;;;5068999;28;20021;-69
2021/04/07 14:54:12;;;;;;;15.95;10.70;;;;;;;;;;5068769;28;20112;-70
2021/04/07 14:56:38;;;;;;;17.95;11.75;;;;;;;;;;5069137;28;20057;-69
2021/04/07 14:59:04;;;;;;;17.60;11.77;;;;;;;;;;5068928;28;20429;-70
2021/04/07 15:01:30;;;;;;;19.55;12.27;;;;;;;;;;5068373;28;20020;-71
2021/04/07 15:03:57;;;;;;;19.67;11.18;;;;;;;;;;5068831;28;20028;-72
2021/04/07 15:06:23;;;;;;;16.88;10.82;;;;;;;;;;5067501;28;20437;-71
2021/04/07 15:08:49;;;;;;;16.02;9.13;;;;;;;;;;5067096;28;20477;-71
2021/04/07 15:11:15;;;;;;;16.83;8.82;;;;;;;;;;5067345;28;20108;-71
2021/04/07 15:13:41;;;;;;;13.55;9.05;;;;;;;;;;5067185;28;20098;-71
2021/04/07 15:16:08;;;;;;;12.80;7.95;;;;;;;;;;5068462;28;20056;-71
2021/04/07 15:18:35;;;;;;;15.43;10.05;;;;;;;;;;5068532;28;20108;-70
2021/04/07 15:21:01;;;;;;;17.05;9.88;;;;;;;;;;5068412;28;20016;-71
2021/04/07 15:23:28;;;;;;;15.82;9.93;;;;;;;;;;5067916;28;20481;-69